Terminal Aerodrome Forecast
Issued by NWS

Home | Current Version | Previous Version | Text Only | Print | Product List | Glossary On
Versions: 1 2 3 4 5 6 7 8 9 10 11 12 13 14
000
FTUS45 KRIW 202300
TAFRKS
TAF
KRKS 202329Z 2100/2124 30013G23KT P6SM SCT090
     FM210100 25010KT P6SM SCT100
     FM210500 06008KT P6SM FEW110
     FM211500 VRB04KT P6SM SCT200
     FM211800 26012G22KT P6SM SCT090 BKN200=

USA.gov is the U.S. government's official web portal to all federal, state and local government web resources and services.